Time;durP1;ratioP1;P1;durP2;ratioP2;P2;SDS_P1;SDS_P2;PMS_P1;PMS_P2;Temp;Humidity;BMP_temperature;BMP_pressure;BME280_temperature;BME280_humidity;BME280_pressure;Samples;Min_cycle;Max_cycle;Signal;HPM_P1;HPM_P2
2022/01/10 00:03:27;;;;;;;15.53;6.20;;;;;;;8.66;48.11;99949.81;10537486;28;20197;-86
2022/01/10 00:08:30;;;;;;;14.30;6.10;;;;;;;8.62;48.29;99952.41;10523321;28;20222;-85
2022/01/10 00:13:32;;;;;;;12.73;6.93;;;;;;;8.49;48.37;99963.66;10507399;28;20272;-85
2022/01/10 00:18:35;;;;;;;14.97;5.90;;;;;;;8.52;48.49;99968.63;10544353;28;20226;-85
2022/01/10 00:23:38;;;;;;;13.47;7.20;;;;;;;8.60;48.23;99970.66;10511873;28;20206;-83
2022/01/10 00:28:43;;;;;;;14.90;7.67;;;;;;;8.12;49.44;99973.19;10505577;28;20194;-85
2022/01/10 00:33:46;;;;;;;14.20;6.57;;;;;;;8.65;48.01;99973.34;10501744;28;20530;-84
2022/01/10 00:38:48;;;;;;;15.83;7.83;;;;;;;8.76;48.03;99980.34;10487048;28;20595;-85
2022/01/10 00:43:51;;;;;;;13.37;6.97;;;;;;;8.98;47.51;99983.13;10499273;28;20225;-84
2022/01/10 00:48:55;;;;;;;12.93;7.37;;;;;;;9.02;47.36;99995.34;10525574;28;20259;-86
2022/01/10 00:53:57;;;;;;;20.10;7.67;;;;;;;8.73;47.86;99999.75;10501769;28;20245;-85
2022/01/10 00:59:00;;;;;;;16.63;8.00;;;;;;;8.44;48.68;100014.16;10501972;28;20245;-84
2022/01/10 01:04:03;;;;;;;13.83;6.93;;;;;;;9.13;46.85;100017.50;10537308;28;20194;-85
2022/01/10 01:09:08;;;;;;;17.23;8.03;;;;;;;8.97;47.16;100015.09;10517206;28;20246;-85
2022/01/10 01:14:22;;;;;;;18.63;8.20;;;;;;;8.96;47.25;100030.25;10520556;28;20259;-85
2022/01/10 01:20:03;;;;;;;15.37;7.67;;;;;;;8.61;48.09;100042.34;10509429;28;20264;-84
2022/01/10 01:24:49;;;;;;;17.80;8.87;;;;;;;8.82;47.82;100049.09;10525388;28;20252;-85
2022/01/10 01:29:52;;;;;;;16.30;8.73;;;;;;;8.79;47.49;100060.13;10501082;28;20263;-85
2022/01/10 01:34:57;;;;;;;15.07;7.67;;;;;;;8.52;48.06;100075.03;10504645;28;20222;-86
2022/01/10 01:40:00;;;;;;;18.97;9.10;;;;;;;8.87;47.12;100088.19;10490500;28;20208;-84
2022/01/10 01:45:04;;;;;;;21.60;9.33;;;;;;;8.66;48.13;100098.22;10497710;28;20202;-86
2022/01/10 01:50:07;;;;;;;16.03;8.23;;;;;;;8.93;47.03;100095.31;10503258;28;20199;-86
2022/01/10 01:55:10;;;;;;;17.63;8.43;;;;;;;8.80;47.39;100109.41;10506306;28;20526;-85
2022/01/10 02:00:13;;;;;;;19.33;9.73;;;;;;;8.57;48.03;100114.09;10509381;28;20202;-85
2022/01/10 02:05:24;;;;;;;20.40;9.03;;;;;;;8.91;47.28;100124.81;10527301;28;20190;-85
2022/01/10 02:10:26;;;;;;;22.90;10.20;;;;;;;8.92;46.80;100130.09;10492045;28;20207;-84
2022/01/10 02:20:51;;;;;;;22.87;10.23;;;;;;;8.94;46.47;100138.16;10529402;28;20201;-85
2022/01/10 02:25:56;;;;;;;20.17;10.90;;;;;;;8.98;46.51;100151.25;10524849;28;20657;-85
2022/01/10 02:31:06;;;;;;;22.37;11.07;;;;;;;8.34;47.76;100162.72;10512936;28;20268;-85
2022/01/10 02:36:26;;;;;;;20.30;10.57;;;;;;;8.48;47.70;100174.78;10528583;28;20279;-85
2022/01/10 02:41:34;;;;;;;22.23;10.97;;;;;;;8.42;47.92;100184.41;10530740;28;20272;-85
2022/01/10 02:46:40;;;;;;;22.03;11.20;;;;;;;7.97;48.78;100192.56;10504911;28;20716;-86
2022/01/10 02:51:57;;;;;;;22.30;10.73;;;;;;;7.97;48.81;100209.34;10530545;28;20610;-86
2022/01/10 02:57:03;;;;;;;24.43;11.63;;;;;;;8.28;47.85;100212.41;10481489;28;20226;-85
2022/01/10 03:02:08;;;;;;;22.67;11.43;;;;;;;8.02;47.83;100219.63;10479188;28;20656;-84
2022/01/10 03:07:15;;;;;;;23.03;11.23;;;;;;;8.28;47.76;100232.00;10530304;28;20252;-84
2022/01/10 03:12:19;;;;;;;24.03;10.17;;;;;;;8.04;48.23;100236.91;10507421;28;20260;-85
2022/01/10 03:17:22;;;;;;;22.37;11.20;;;;;;;7.63;49.06;100236.81;10524729;28;20287;-85
2022/01/10 03:22:26;;;;;;;17.63;11.10;;;;;;;7.94;48.43;100254.72;10500316;28;20210;-84
2022/01/10 03:27:29;;;;;;;18.87;10.53;;;;;;;7.48;49.31;100255.47;10499144;28;20487;-87
2022/01/10 03:32:31;;;;;;;24.87;12.20;;;;;;;7.97;48.06;100264.47;10513526;28;20210;-85
2022/01/10 03:37:42;;;;;;;20.47;11.10;;;;;;;7.85;48.45;100273.34;10508441;28;20206;-85
2022/01/10 03:42:45;;;;;;;24.80;12.40;;;;;;;7.69;48.20;100274.72;10493089;28;20256;-86
2022/01/10 03:47:47;;;;;;;26.97;12.60;;;;;;;7.91;47.60;100283.28;10504804;28;20194;-86
2022/01/10 03:52:50;;;;;;;23.97;11.87;;;;;;;7.86;48.05;100280.59;10522891;28;20214;-87
2022/01/10 03:57:52;;;;;;;24.30;11.70;;;;;;;7.76;48.08;100283.56;10534576;28;20203;-87
2022/01/10 04:02:57;;;;;;;27.07;13.43;;;;;;;7.72;47.88;100290.88;10512548;28;20499;-86
2022/01/10 04:08:04;;;;;;;22.67;11.70;;;;;;;7.64;48.31;100298.00;10530750;28;20226;-85
2022/01/10 04:13:07;;;;;;;27.13;12.80;;;;;;;7.51;48.16;100307.97;10527660;28;20252;-85
2022/01/10 04:18:10;;;;;;;24.03;13.63;;;;;;;7.41;48.11;100322.09;10509182;28;20688;-86
2022/01/10 04:23:16;;;;;;;25.33;13.13;;;;;;;7.41;48.67;100330.47;10509414;28;20254;-85
2022/01/10 04:28:19;;;;;;;27.23;13.03;;;;;;;7.50;48.11;100345.44;10510702;28;20202;-85
2022/01/10 04:33:27;;;;;;;24.67;12.60;;;;;;;7.34;48.23;100357.97;10524271;28;20226;-85
2022/01/10 04:38:31;;;;;;;30.97;12.60;;;;;;;7.10;47.88;100374.75;10524772;28;20206;-85
2022/01/10 04:43:35;;;;;;;23.23;12.60;;;;;;;7.12;47.48;100378.06;10508234;28;20253;-85
2022/01/10 04:48:38;;;;;;;24.03;12.27;;;;;;;7.05;47.55;100396.31;10503855;28;20264;-85
2022/01/10 04:53:45;;;;;;;22.47;12.37;;;;;;;7.10;47.56;100402.69;10499016;28;20511;-84
2022/01/10 04:58:49;;;;;;;31.70;13.07;;;;;;;7.08;47.72;100426.47;10488220;28;20214;-85
2022/01/10 05:03:51;;;;;;;21.77;12.93;;;;;;;7.12;47.54;100435.88;10513328;28;20199;-85
2022/01/10 05:08:54;;;;;;;25.00;12.83;;;;;;;7.03;47.90;100440.47;10495245;28;20223;-84
2022/01/10 05:14:15;;;;;;;25.33;14.83;;;;;;;6.96;48.55;100451.16;10513795;28;20219;-84
2022/01/10 05:19:19;;;;;;;29.37;14.50;;;;;;;7.21;48.18;100460.16;10515808;28;20235;-85
2022/01/10 05:24:21;;;;;;;23.27;12.70;;;;;;;7.28;48.00;100470.94;10517195;28;20206;-86
2022/01/10 05:29:24;;;;;;;28.30;14.43;;;;;;;7.03;48.40;100479.56;10502564;28;20207;-87
2022/01/10 05:34:27;;;;;;;28.90;13.87;;;;;;;7.20;48.04;100486.41;10505478;28;20214;-85
2022/01/10 05:39:29;;;;;;;25.43;14.00;;;;;;;6.91;48.89;100501.50;10518031;28;20210;-86
2022/01/10 05:44:32;;;;;;;28.27;14.37;;;;;;;7.27;47.98;100516.78;10510306;28;20224;-86
2022/01/10 05:49:37;;;;;;;31.37;16.27;;;;;;;6.98;48.59;100522.38;10528583;28;20267;-85
2022/01/10 05:54:41;;;;;;;26.83;14.93;;;;;;;7.01;48.75;100537.69;10507754;28;20303;-86
2022/01/10 05:59:44;;;;;;;27.70;15.57;;;;;;;6.79;49.00;100547.38;10514104;28;20194;-85
2022/01/10 06:04:47;;;;;;;30.23;15.43;;;;;;;6.95;48.70;100555.66;10528855;28;20206;-87
2022/01/10 06:10:06;;;;;;;25.73;14.10;;;;;;;6.76;50.33;100569.47;10510426;28;20242;-84
2022/01/10 06:15:09;;;;;;;36.77;16.80;;;;;;;6.60;49.87;100576.28;10510702;28;20307;-86
2022/01/10 06:20:16;;;;;;;32.87;15.67;;;;;;;6.62;49.54;100588.84;10515655;28;20240;-86
2022/01/10 06:25:22;;;;;;;28.03;16.73;;;;;;;6.80;49.64;100593.75;10517165;28;20656;-86
2022/01/10 06:30:24;;;;;;;32.17;16.50;;;;;;;6.75;49.37;100607.72;10534871;28;20237;-86
2022/01/10 06:35:28;;;;;;;29.57;16.40;;;;;;;6.70;49.42;100618.13;10544930;28;20226;-87
2022/01/10 06:40:31;;;;;;;27.17;15.07;;;;;;;6.92;49.31;100628.84;10542242;28;20206;-84
2022/01/10 06:45:34;;;;;;;32.07;16.67;;;;;;;6.63;49.51;100632.38;10517502;28;20224;-86
2022/01/10 06:50:38;;;;;;;27.30;16.07;;;;;;;6.88;49.20;100640.59;10549489;28;20603;-86
2022/01/10 06:55:41;;;;;;;28.23;16.10;;;;;;;6.72;49.70;100647.38;10533568;28;20275;-86
2022/01/10 07:00:45;;;;;;;31.10;17.23;;;;;;;6.99;49.26;100662.84;10531522;28;20206;-86
2022/01/10 07:05:48;;;;;;;28.77;16.27;;;;;;;7.04;49.51;100682.38;10535940;28;20226;-86
2022/01/10 07:10:52;;;;;;;30.93;16.30;;;;;;;6.88;50.27;100693.66;10526952;28;20240;-85
2022/01/10 07:15:56;;;;;;;25.93;15.63;;;;;;;6.86;50.20;100703.44;10528198;28;20219;-86
2022/01/10 07:20:58;;;;;;;28.90;16.30;;;;;;;7.13;49.75;100723.38;10546539;28;20458;-86
2022/01/10 07:26:02;;;;;;;28.00;15.60;;;;;;;7.32;49.14;100736.72;10529282;28;20198;-86
2022/01/10 07:31:05;;;;;;;31.53;16.57;;;;;;;7.09;49.85;100758.63;10518094;28;20664;-86
2022/01/10 07:36:07;;;;;;;28.07;15.60;;;;;;;6.97;50.40;100776.84;10532981;28;20226;-86
2022/01/10 07:41:09;;;;;;;23.63;14.67;;;;;;;7.71;48.48;100778.63;10560552;28;20251;-86
2022/01/10 07:46:12;;;;;;;30.70;15.57;;;;;;;7.43;49.16;100792.25;10538512;28;20203;-86
2022/01/10 07:51:14;;;;;;;28.07;15.20;;;;;;;7.17;50.35;100797.16;10514605;28;20462;-87
2022/01/10 07:56:17;;;;;;;28.13;14.93;;;;;;;6.64;51.62;100804.34;10515345;28;20226;-86
2022/01/10 08:01:20;;;;;;;23.70;14.77;;;;;;;7.22;50.30;100810.28;10535778;28;20209;-86
2022/01/10 08:06:23;;;;;;;28.00;15.17;;;;;;;6.60;52.01;100828.38;10540013;28;20250;-85
2022/01/10 08:11:27;;;;;;;28.03;15.03;;;;;;;6.88;51.11;100833.28;10537487;28;20214;-86
2022/01/10 08:16:30;;;;;;;30.77;14.73;;;;;;;7.43;50.21;100836.97;10543887;28;20251;-85
2022/01/10 08:21:32;;;;;;;23.90;14.80;;;;;;;7.75;49.13;100855.22;10512155;28;20203;-86
2022/01/10 08:26:34;;;;;;;29.83;15.17;;;;;;;7.21;50.38;100862.53;10506418;28;20206;-86
2022/01/10 08:31:37;;;;;;;31.20;15.00;;;;;;;7.56;48.88;100877.44;10519890;28;20206;-86
2022/01/10 08:36:39;;;;;;;31.40;15.67;;;;;;;7.04;50.22;100894.69;10521451;28;20244;-86
2022/01/10 08:41:41;;;;;;;27.33;14.63;;;;;;;6.74;51.60;100902.03;10500468;28;20210;-86
2022/01/10 08:46:45;;;;;;;31.70;14.73;;;;;;;7.42;49.68;100902.38;10520561;28;20195;-86
2022/01/10 08:51:53;;;;;;;27.10;14.67;;;;;;;7.88;48.56;100916.13;10525984;28;20206;-87
2022/01/10 08:56:56;;;;;;;33.27;15.73;;;;;;;7.65;49.08;100916.81;10534667;28;20226;-86
2022/01/10 09:01:59;;;;;;;29.77;15.53;;;;;;;8.00;48.63;100919.38;10540638;28;20648;-85
2022/01/10 09:07:02;;;;;;;31.77;14.93;;;;;;;7.76;48.83;100929.63;10525612;28;20287;-86
2022/01/10 09:12:05;;;;;;;26.13;14.00;;;;;;;7.95;47.85;100933.41;10528505;28;20256;-85
2022/01/10 09:17:09;;;;;;;28.33;14.33;;;;;;;7.42;49.61;100929.50;10520078;28;20231;-86
2022/01/10 09:22:11;;;;;;;30.63;16.33;;;;;;;7.57;49.60;100944.25;10523352;28;20211;-85
2022/01/10 09:27:14;;;;;;;30.40;16.00;;;;;;;7.13;50.22;100946.06;10547146;28;20240;-86
2022/01/10 09:32:16;;;;;;;28.23;16.43;;;;;;;7.52;49.46;100952.66;10509981;28;20224;-86
2022/01/10 09:37:18;;;;;;;27.10;15.80;;;;;;;7.36;50.44;100958.63;10541426;28;20229;-86
2022/01/10 09:42:21;;;;;;;29.30;14.87;;;;;;;7.82;48.96;100962.03;10538455;28;20272;-86
2022/01/10 09:47:23;;;;;;;26.47;15.30;;;;;;;7.66;49.43;100971.59;10530066;28;20228;-86
2022/01/10 09:52:25;;;;;;;30.47;15.10;;;;;;;8.32;47.78;100983.25;10528346;28;20251;-86
2022/01/10 09:57:28;;;;;;;32.73;15.67;;;;;;;8.70;46.82;101001.16;10532935;28;20230;-86
2022/01/10 10:02:31;;;;;;;27.73;14.63;;;;;;;8.80;47.01;101001.06;10533779;28;20214;-86
2022/01/10 10:07:36;;;;;;;30.43;14.93;;;;;;;7.68;49.50;101016.91;10528118;28;20272;-86
2022/01/10 10:12:49;;;;;;;28.87;15.07;;;;;;;8.67;47.23;101017.75;10526719;28;20591;-85
2022/01/10 10:17:51;;;;;;;24.17;13.17;;;;;;;9.04;45.90;101019.94;10521795;28;20561;-86
2022/01/10 10:22:54;;;;;;;27.20;13.90;;;;;;;9.04;46.24;101023.56;10494653;28;20211;-86
2022/01/10 10:27:57;;;;;;;28.43;13.60;;;;;;;8.45;47.96;101032.16;10495559;28;20500;-86
2022/01/10 10:33:12;;;;;;;27.23;14.00;;;;;;;8.27;48.04;101045.72;10541594;28;20255;-85
2022/01/10 10:38:15;;;;;;;27.37;14.17;;;;;;;9.08;45.72;101046.22;10535239;28;20633;-87
2022/01/10 10:43:17;;;;;;;23.03;13.33;;;;;;;9.17;45.96;101047.28;10540936;28;20206;-84
2022/01/10 10:48:19;;;;;;;26.83;13.27;;;;;;;9.68;44.44;101051.22;10530770;28;20511;-85
2022/01/10 10:53:26;;;;;;;30.03;13.70;;;;;;;9.94;44.04;101059.31;10521940;28;20228;-85
2022/01/10 10:58:29;;;;;;;23.57;11.87;;;;;;;9.15;45.61;101074.75;10521725;28;20704;-84
2022/01/10 11:03:31;;;;;;;25.30;12.50;;;;;;;9.09;45.97;101081.53;10555397;28;20269;-87
2022/01/10 11:08:36;;;;;;;25.83;11.93;;;;;;;9.71;45.23;101089.03;10547680;28;20210;-84
2022/01/10 11:13:38;;;;;;;22.90;11.37;;;;;;;8.94;47.08;101096.50;10543864;28;20587;-84
2022/01/10 11:18:41;;;;;;;22.37;11.00;;;;;;;9.15;46.22;101091.56;10540170;28;20234;-85
2022/01/10 11:23:45;;;;;;;18.23;10.10;;;;;;;9.78;43.97;101094.31;10523814;28;20202;-84
2022/01/10 11:28:50;;;;;;;20.47;10.17;;;;;;;9.35;46.18;101103.44;10515873;28;20198;-84
2022/01/10 11:33:55;;;;;;;20.73;10.10;;;;;;;8.94;47.58;101102.94;10539495;28;20259;-83
2022/01/10 11:38:59;;;;;;;20.67;10.67;;;;;;;10.02;44.24;101109.19;10532634;28;20771;-84
2022/01/10 11:44:14;;;;;;;20.00;9.50;;;;;;;10.24;42.85;101115.06;10534119;28;20256;-85
2022/01/10 11:49:21;;;;;;;18.53;7.53;;;;;;;9.98;42.86;101113.72;10523994;28;20194;-84
2022/01/10 11:54:27;;;;;;;18.40;7.70;;;;;;;9.14;45.85;101123.53;10534073;28;20256;-86
2022/01/10 11:59:37;;;;;;;15.93;8.13;;;;;;;9.55;44.31;101130.47;10512499;28;20279;-85
2022/01/10 12:04:44;;;;;;;19.40;8.40;;;;;;;9.23;44.69;101138.59;10512955;28;20211;-85
2022/01/10 12:09:46;;;;;;;15.17;5.03;;;;;;;9.40;43.53;101136.19;10525257;28;20248;-85
2022/01/10 12:14:51;;;;;;;13.13;5.27;;;;;;;10.62;40.52;101143.19;10534261;28;20703;-84
2022/01/10 12:19:54;;;;;;;11.07;5.40;;;;;;;9.92;41.79;101146.63;10551259;28;20221;-84
2022/01/10 12:24:57;;;;;;;15.43;6.43;;;;;;;10.52;41.92;101148.97;10528904;28;20673;-84
2022/01/10 12:30:00;;;;;;;10.20;5.07;;;;;;;10.27;42.25;101167.00;10509472;28;20198;-86
2022/01/10 12:35:02;;;;;;;18.47;6.47;;;;;;;9.93;42.93;101175.53;10517532;28;20274;-84
2022/01/10 12:40:05;;;;;;;12.33;5.73;;;;;;;10.44;42.44;101182.22;10500971;28;20254;-84
2022/01/10 12:45:10;;;;;;;12.70;5.77;;;;;;;10.58;41.37;101195.53;10478982;28;20260;-83
2022/01/10 12:50:13;;;;;;;12.67;4.47;;;;;;;10.35;40.92;101203.69;10517369;28;20213;-85
2022/01/10 12:55:15;;;;;;;10.47;5.17;;;;;;;10.73;40.95;101196.22;10509202;28;20299;-85
2022/01/10 13:00:19;;;;;;;12.27;4.87;;;;;;;10.75;41.24;101204.31;10526808;28;20203;-86
2022/01/10 13:05:21;;;;;;;12.10;5.30;;;;;;;11.01;39.75;101197.19;10529240;28;20243;-86
2022/01/10 13:10:31;;;;;;;14.77;5.13;;;;;;;10.50;41.30;101213.03;10530605;28;20215;-86
2022/01/10 13:15:39;;;;;;;15.30;5.87;;;;;;;10.54;41.46;101225.38;10498775;28;20688;-86
2022/01/10 13:20:43;;;;;;;10.07;4.97;;;;;;;10.20;41.19;101219.88;10477863;28;20206;-86
2022/01/10 13:25:45;;;;;;;12.37;5.43;;;;;;;10.32;40.54;101220.31;10497154;28;20195;-86
2022/01/10 13:30:53;;;;;;;9.93;4.80;;;;;;;10.06;42.81;101236.59;10469886;28;20200;-84
2022/01/10 13:35:57;;;;;;;15.93;5.50;;;;;;;11.21;39.21;101234.59;10466127;28;20206;-85
2022/01/10 13:41:09;;;;;;;15.33;5.10;;;;;;;10.23;41.92;101265.03;10485967;28;20195;-84
2022/01/10 13:46:18;;;;;;;18.00;5.27;;;;;;;10.76;40.30;101267.81;10476318;28;20196;-85
2022/01/10 13:51:23;;;;;;;13.27;5.37;;;;;;;10.62;39.84;101261.22;10439434;28;20215;-85
2022/01/10 13:56:25;;;;;;;9.63;4.03;;;;;;;10.78;40.09;101263.56;10466653;28;20227;-84
2022/01/10 14:01:44;;;;;;;12.47;4.33;;;;;;;10.54;41.07;101271.16;10485332;28;20485;-84
2022/01/10 14:06:47;;;;;;;13.20;4.90;;;;;;;11.12;40.14;101288.72;10456797;28;20625;-84
2022/01/10 14:11:49;;;;;;;11.60;5.10;;;;;;;11.07;39.49;101302.84;10461727;28;20222;-87
2022/01/10 14:16:55;;;;;;;13.20;5.27;;;;;;;11.21;38.82;101291.69;10479727;28;20428;-84
2022/01/10 14:21:59;;;;;;;13.73;5.77;;;;;;;11.04;39.20;101314.69;10503843;28;20236;-84
2022/01/10 14:27:05;;;;;;;16.27;6.57;;;;;;;10.91;39.56;101308.97;10466903;28;20543;-85
2022/01/10 14:32:09;;;;;;;15.33;5.43;;;;;;;10.58;40.50;101330.41;10518115;28;20486;-86
2022/01/10 14:37:11;;;;;;;11.80;5.10;;;;;;;10.19;41.40;101325.75;10512113;28;20623;-86
2022/01/10 14:42:14;;;;;;;13.67;6.17;;;;;;;10.47;40.70;101335.31;10480299;28;20546;-84
2022/01/10 14:47:16;;;;;;;14.83;6.53;;;;;;;10.28;41.12;101352.06;10496437;28;20198;-84
2022/01/10 14:52:19;;;;;;;18.67;6.03;;;;;;;9.87;42.28;101351.56;10496691;28;20279;-84
2022/01/10 14:57:21;;;;;;;18.33;6.70;;;;;;;9.85;42.36;101356.63;10500744;28;20249;-87
2022/01/10 15:02:23;;;;;;;15.40;6.60;;;;;;;9.96;42.33;101363.03;10504377;28;20660;-85
2022/01/10 15:07:26;;;;;;;18.13;6.43;;;;;;;9.81;42.97;101369.59;10488702;28;20255;-84
2022/01/10 15:12:28;;;;;;;29.50;7.37;;;;;;;9.51;43.34;101387.44;10496407;28;20280;-87
2022/01/10 15:17:31;;;;;;;26.03;7.43;;;;;;;9.44;44.08;101386.09;10497296;28;20219;-84
2022/01/10 15:22:34;;;;;;;35.93;8.00;;;;;;;9.39;44.19;101395.34;10519927;28;20207;-85
2022/01/10 15:27:36;;;;;;;24.53;7.97;;;;;;;9.19;44.88;101409.50;10534745;28;20194;-86
2022/01/10 15:32:38;;;;;;;32.30;8.93;;;;;;;9.11;44.68;101422.13;10506142;28;20260;-87
2022/01/10 15:37:41;;;;;;;21.47;6.57;;;;;;;8.98;45.90;101434.78;10512273;28;20252;-88
2022/01/10 15:42:44;;;;;;;29.13;8.07;;;;;;;9.04;44.95;101443.19;10530366;28;20545;-87
2022/01/10 15:47:46;;;;;;;18.93;7.03;;;;;;;8.69;45.68;101450.53;10531136;28;20191;-88
2022/01/10 15:52:49;;;;;;;21.73;7.43;;;;;;;8.76;46.03;101445.47;10529138;28;20241;-85
2022/01/10 15:57:54;;;;;;;16.40;7.20;;;;;;;8.48;46.15;101469.31;10520936;28;20634;-85
2022/01/10 16:02:56;;;;;;;15.10;6.40;;;;;;;8.27;46.79;101473.22;10516892;28;20514;-86
2022/01/10 16:07:59;;;;;;;22.57;7.53;;;;;;;8.09;46.90;101488.56;10505232;28;20231;-85
2022/01/10 16:13:02;;;;;;;18.53;7.87;;;;;;;7.94;47.37;101496.94;10504457;28;20229;-85
2022/01/10 16:18:04;;;;;;;19.00;8.00;;;;;;;7.62;47.46;101518.66;10526042;28;20286;-84
2022/01/10 16:23:07;;;;;;;21.43;7.67;;;;;;;7.64;48.13;101528.44;10525326;28;20256;-86
2022/01/10 16:28:09;;;;;;;17.23;7.87;;;;;;;7.71;47.65;101537.44;10524367;28;20194;-85
2022/01/10 16:33:11;;;;;;;24.23;8.13;;;;;;;7.56;47.95;101557.78;10485781;28;20257;-85
2022/01/10 16:38:14;;;;;;;17.53;8.00;;;;;;;7.55;47.62;101570.09;10502780;28;20268;-84
2022/01/10 16:43:19;;;;;;;17.40;8.27;;;;;;;7.40;47.85;101569.16;10509105;28;20214;-84
2022/01/10 16:48:22;;;;;;;47.73;22.97;;;;;;;7.51;47.79;101584.88;10552187;28;20248;-84
2022/01/10 16:53:25;;;;;;;23.23;12.00;;;;;;;7.18;48.47;101594.47;10524119;28;20210;-83
2022/01/10 16:58:28;;;;;;;22.73;10.50;;;;;;;7.13;48.21;101592.44;10526112;28;20226;-84
2022/01/10 17:03:30;;;;;;;21.77;10.67;;;;;;;6.95;48.14;101601.25;10541022;28;20207;-84
2022/01/10 17:08:33;;;;;;;21.40;10.30;;;;;;;7.08;48.13;101608.34;10531677;28;20236;-83
2022/01/10 17:13:35;;;;;;;20.60;10.40;;;;;;;6.96;48.57;101607.69;10521015;28;20581;-84
2022/01/10 17:18:37;;;;;;;21.43;10.63;;;;;;;6.83;48.88;101618.19;10525283;28;20276;-85
2022/01/10 17:23:39;;;;;;;24.60;11.37;;;;;;;6.51;48.46;101628.47;10570099;28;20207;-86
2022/01/10 17:28:42;;;;;;;19.57;11.23;;;;;;;6.41;49.15;101640.38;10520200;28;20203;-88
2022/01/10 17:33:45;;;;;;;19.13;11.40;;;;;;;6.64;48.54;101641.16;10509725;28;20202;-83
2022/01/10 17:38:48;;;;;;;24.17;11.93;;;;;;;6.54;48.83;101653.09;10509846;28;20343;-87
2022/01/10 17:43:51;;;;;;;20.63;10.70;;;;;;;6.46;48.90;101651.59;10526728;28;20194;-87
2022/01/10 17:49:00;;;;;;;23.73;10.50;;;;;;;6.46;48.78;101654.38;10526114;28;20206;-84
2022/01/10 17:54:24;;;;;;;19.30;10.47;;;;;;;6.16;48.93;101665.22;10526249;28;20203;-84
2022/01/10 17:59:26;;;;;;;18.93;9.33;;;;;;;6.31;48.62;101664.56;10525609;28;20218;-84
2022/01/10 18:04:28;;;;;;;19.67;10.03;;;;;;;6.07;49.13;101672.34;10510512;28;20251;-86
2022/01/10 18:09:34;;;;;;;17.00;9.23;;;;;;;6.22;49.19;101671.69;10551420;28;20215;-86
2022/01/10 18:14:37;;;;;;;21.03;9.03;;;;;;;6.38;48.52;101685.56;10523208;28;20551;-86
2022/01/10 18:19:39;;;;;;;20.30;10.33;;;;;;;6.38;48.58;101702.31;10512746;28;20217;-84
2022/01/10 18:24:41;;;;;;;18.30;9.90;;;;;;;6.32;48.93;101694.16;10544230;28;20189;-84
2022/01/10 18:29:44;;;;;;;19.80;10.53;;;;;;;6.24;48.91;101700.16;10498231;28;20244;-85
2022/01/10 18:34:46;;;;;;;27.93;12.30;;;;;;;6.29;48.87;101708.63;10516931;28;20210;-87
2022/01/10 18:39:48;;;;;;;23.27;11.90;;;;;;;6.06;48.83;101715.31;10539149;28;20221;-85
2022/01/10 18:44:52;;;;;;;21.00;10.20;;;;;;;6.11;49.53;101723.72;10562039;28;20199;-84
2022/01/10 18:49:54;;;;;;;22.57;10.17;;;;;;;6.02;49.93;101731.69;10534045;28;20533;-85
2022/01/10 18:54:56;;;;;;;19.83;11.03;;;;;;;5.96;50.02;101727.13;10524769;28;20217;-87
2022/01/10 18:59:58;;;;;;;23.07;10.77;;;;;;;6.27;49.12;101739.56;10473853;28;20255;-87
2022/01/10 19:05:06;;;;;;;19.67;10.83;;;;;;;6.38;48.83;101738.59;10488359;28;20195;-85
2022/01/10 19:10:08;;;;;;;20.50;10.00;;;;;;;6.36;49.01;101743.59;10525149;28;20543;-85
2022/01/10 19:15:10;;;;;;;23.00;11.07;;;;;;;6.34;48.72;101737.41;10495664;28;20227;-84
2022/01/10 19:20:18;;;;;;;20.87;11.70;;;;;;;6.43;48.72;101754.56;10530801;28;20242;-85
2022/01/10 19:25:20;;;;;;;26.93;11.43;;;;;;;6.09;49.05;101743.50;10504711;28;20649;-84
2022/01/10 19:30:22;;;;;;;23.90;12.13;;;;;;;6.01;49.96;101749.53;10488459;28;20207;-84
2022/01/10 19:35:25;;;;;;;21.23;12.13;;;;;;;6.29;49.06;101768.06;10511984;28;20206;-84
2022/01/10 19:40:27;;;;;;;18.47;10.67;;;;;;;6.25;49.09;101771.63;10499400;28;20226;-84
2022/01/10 19:45:29;;;;;;;20.73;11.77;;;;;;;6.16;48.97;101776.81;10510716;28;20202;-84
2022/01/10 19:50:32;;;;;;;23.13;12.23;;;;;;;6.11;49.51;101783.16;10534226;28;20202;-85
2022/01/10 19:55:35;;;;;;;23.77;13.13;;;;;;;6.24;48.62;101786.69;10487310;28;20263;-85
2022/01/10 20:00:37;;;;;;;24.27;12.53;;;;;;;5.94;49.36;101787.94;10498901;28;20242;-86
2022/01/10 20:05:40;;;;;;;21.80;11.57;;;;;;;5.75;49.10;101794.84;10491367;28;20226;-86
2022/01/10 20:10:47;;;;;;;26.10;11.93;;;;;;;5.82;49.16;101792.75;10489551;28;20284;-86
2022/01/10 20:15:51;;;;;;;20.07;12.13;;;;;;;5.98;49.72;101808.63;10477513;28;20316;-86
2022/01/10 20:20:53;;;;;;;21.10;11.87;;;;;;;5.76;49.15;101807.72;10497433;28;20319;-86
2022/01/10 20:25:55;;;;;;;22.17;13.37;;;;;;;5.22;49.15;101820.41;10492024;28;20231;-85
2022/01/10 20:30:58;;;;;;;22.50;12.93;;;;;;;5.26;49.93;101822.44;10468407;28;20545;-84
2022/01/10 20:36:01;;;;;;;22.67;13.00;;;;;;;5.38;49.38;101830.72;10515102;28;20234;-85
2022/01/10 20:41:03;;;;;;;24.07;12.10;;;;;;;5.56;49.17;101835.22;10518457;28;20332;-84
2022/01/10 20:46:07;;;;;;;21.93;11.73;;;;;;;5.26;48.94;101836.38;10515076;28;20223;-84
2022/01/10 20:51:09;;;;;;;35.83;19.60;;;;;;;5.55;49.53;101841.91;10515362;28;20216;-85
2022/01/10 20:56:12;;;;;;;26.30;14.43;;;;;;;5.37;50.39;101852.19;10506938;28;20203;-84
2022/01/10 21:01:14;;;;;;;41.03;20.10;;;;;;;5.48;49.86;101847.63;10495852;28;20230;-86
2022/01/10 21:06:17;;;;;;;27.33;14.37;;;;;;;5.47;50.73;101851.50;10505795;28;20297;-88
2022/01/10 21:11:19;;;;;;;24.33;14.33;;;;;;;5.70;50.31;101848.56;10481104;28;20247;-86
2022/01/10 21:16:21;;;;;;;27.53;13.93;;;;;;;5.59;50.37;101859.81;10502110;28;20233;-88
2022/01/10 21:21:24;;;;;;;27.27;13.40;;;;;;;5.53;50.58;101858.03;10522787;28;20252;-86
2022/01/10 21:26:30;;;;;;;25.73;13.33;;;;;;;5.66;50.62;101860.50;10492163;28;20727;-87
2022/01/10 21:31:34;;;;;;;20.63;12.63;;;;;;;5.59;50.03;101865.38;10475346;28;20253;-85
2022/01/10 21:36:38;;;;;;;20.23;12.13;;;;;;;5.02;52.05;101868.22;10498231;28;20568;-88
2022/01/10 21:41:41;;;;;;;24.10;12.47;;;;;;;5.20;52.07;101867.16;10480615;28;20257;-87
2022/01/10 21:46:43;;;;;;;25.90;12.30;;;;;;;5.04;52.25;101869.63;10525170;28;20206;-88
2022/01/10 21:51:46;;;;;;;21.23;12.60;;;;;;;4.75;53.42;101876.28;10519484;28;20248;-84
2022/01/10 21:56:48;;;;;;;23.93;12.80;;;;;;;3.92;55.48;101877.38;10503729;28;20210;-87
2022/01/10 22:02:09;;;;;;;18.47;12.10;;;;;;;4.11;54.89;101877.28;10528419;28;20207;-87
2022/01/10 22:07:12;;;;;;;20.30;12.40;;;;;;;4.66;53.39;101886.94;10528843;28;20614;-87
2022/01/10 22:12:15;;;;;;;21.60;12.90;;;;;;;4.84;52.29;101885.09;10520641;28;20276;-87
2022/01/10 22:17:17;;;;;;;23.80;12.80;;;;;;;5.04;51.01;101891.91;10501657;28;20299;-84
2022/01/10 22:22:20;;;;;;;22.80;13.23;;;;;;;4.74;51.91;101900.50;10502186;28;20237;-85
2022/01/10 22:27:22;;;;;;;20.13;11.93;;;;;;;4.14;54.01;101901.81;10539382;28;20206;-85
2022/01/10 22:32:24;;;;;;;23.10;13.10;;;;;;;4.76;52.10;101894.69;10538536;28;20259;-87
2022/01/10 22:37:26;;;;;;;23.00;13.13;;;;;;;4.54;51.96;101899.16;10540258;28;20499;-85
2022/01/10 22:42:29;;;;;;;22.10;12.30;;;;;;;5.06;50.64;101900.88;10555679;28;20266;-87
2022/01/10 22:47:31;;;;;;;19.13;12.07;;;;;;;5.06;50.26;101894.47;10543505;28;20250;-85
2022/01/10 22:52:33;;;;;;;20.70;11.93;;;;;;;4.97;50.10;101887.59;10537983;28;20206;-85
2022/01/10 22:57:36;;;;;;;20.07;12.47;;;;;;;4.94;50.56;101880.56;10521717;28;20207;-84
2022/01/10 23:02:38;;;;;;;18.37;12.13;;;;;;;4.89;50.47;101886.06;10500069;28;20466;-84
2022/01/10 23:07:43;;;;;;;20.10;11.10;;;;;;;4.68;50.77;101892.25;10516996;28;20222;-84
2022/01/10 23:12:45;;;;;;;17.50;11.20;;;;;;;4.89;50.39;101893.56;10531484;28;20224;-84